Time;durP1;ratioP1;P1;durP2;ratioP2;P2;SDS_P1;SDS_P2;PMS_P1;PMS_P2;Temp;Humidity;BMP_temperature;BMP_pressure;BME280_temperature;BME280_humidity;BME280_pressure;Samples;Min_cycle;Max_cycle;Signal;HPM_P1;HPM_P2
2022/04/23 00:01:54;;;;;;;19.60;14.93;;;11.20;99.90;;;;;;4963385;28;20094;-63
2022/04/23 00:04:20;;;;;;;20.00;15.07;;;11.20;99.90;;;;;;4974091;28;20047;-63
2022/04/23 00:06:45;;;;;;;21.05;15.73;;;11.20;99.90;;;;;;4974501;28;20078;-63
2022/04/23 00:09:11;;;;;;;22.77;16.38;;;11.20;99.90;;;;;;4974640;28;20040;-63
2022/04/23 00:11:37;;;;;;;20.95;15.90;;;11.20;99.90;;;;;;4962645;28;20112;-63
2022/04/23 00:14:04;;;;;;;23.83;17.17;;;11.20;99.90;;;;;;4973694;28;20046;-63
2022/04/23 00:16:30;;;;;;;23.80;16.08;;;11.20;99.90;;;;;;4967757;28;20039;-63
2022/04/23 00:18:58;;;;;;;24.05;16.58;;;11.10;99.90;;;;;;4964218;28;20814;-63
2022/04/23 00:21:23;;;;;;;26.90;17.13;;;11.10;99.90;;;;;;4973890;28;20105;-63
2022/04/23 00:23:49;;;;;;;23.75;17.23;;;11.00;99.90;;;;;;4973842;28;20042;-63
2022/04/23 00:26:15;;;;;;;24.77;17.10;;;11.00;99.90;;;;;;4962100;28;20174;-63
2022/04/23 00:28:40;;;;;;;26.60;17.70;;;11.00;99.90;;;;;;4963129;28;20089;-63
2022/04/23 00:31:06;;;;;;;23.70;17.75;;;10.90;99.90;;;;;;4973409;28;20035;-63
2022/04/23 00:33:38;;;;;;;24.23;17.27;;;11.00;99.90;;;;;;4964071;28;20035;-63
2022/04/23 00:36:09;;;;;;;23.30;16.58;;;11.00;99.90;;;;;;4958995;28;20062;-63
2022/04/23 00:38:37;;;;;;;24.00;17.08;;;11.00;99.90;;;;;;4973607;28;20089;-63
2022/04/23 00:41:02;;;;;;;26.65;17.73;;;10.90;99.90;;;;;;4973721;28;20048;-63
2022/04/23 00:43:30;;;;;;;28.85;17.48;;;11.00;99.90;;;;;;4949139;28;20031;-63
2022/04/23 00:45:57;;;;;;;28.70;18.38;;;10.90;99.90;;;;;;4972284;28;20050;-63
2022/04/23 00:48:24;;;;;;;28.60;19.00;;;10.80;99.90;;;;;;4973955;28;20043;-63
2022/04/23 00:50:52;;;;;;;27.50;18.92;;;10.80;99.90;;;;;;4965591;28;20042;-63
2022/04/23 00:53:19;;;;;;;25.80;19.30;;;10.80;99.90;;;;;;4971479;28;20401;-63
2022/04/23 00:55:46;;;;;;;25.88;18.77;;;10.70;99.90;;;;;;4973384;28;20097;-63
2022/04/23 00:58:15;;;;;;;27.77;18.75;;;10.80;99.90;;;;;;4965478;28;20030;-63
2022/04/23 01:00:42;;;;;;;26.70;18.42;;;10.80;99.90;;;;;;4958898;28;20097;-63
2022/04/23 01:03:07;;;;;;;25.33;18.40;;;10.80;99.90;;;;;;4972921;28;20034;-63
2022/04/23 01:05:34;;;;;;;27.63;19.00;;;10.70;99.90;;;;;;4973593;28;20042;-63
2022/04/23 01:08:02;;;;;;;27.65;18.63;;;10.70;99.90;;;;;;4966358;28;20043;-63
2022/04/23 01:10:28;;;;;;;30.00;19.15;;;10.60;99.90;;;;;;4972696;28;20463;-63
2022/04/23 01:12:54;;;;;;;27.27;19.38;;;10.60;99.90;;;;;;4972133;28;20134;-63
2022/04/23 01:15:21;;;;;;;29.23;19.77;;;10.60;99.90;;;;;;4973264;28;20129;-63
2022/04/23 01:17:49;;;;;;;26.05;19.75;;;10.60;99.90;;;;;;4955411;28;20441;-63
2022/04/23 01:20:15;;;;;;;28.48;19.58;;;10.60;99.90;;;;;;4966556;28;20041;-63
2022/04/23 01:22:43;;;;;;;28.35;20.20;;;10.60;99.90;;;;;;4970467;28;20230;-63
2022/04/23 01:25:12;;;;;;;26.27;19.02;;;10.60;99.90;;;;;;4954448;28;20035;-63
2022/04/23 01:27:42;;;;;;;27.50;19.17;;;10.60;99.90;;;;;;4969469;28;20133;-62
2022/04/23 01:30:12;;;;;;;28.40;20.35;;;10.60;99.90;;;;;;4973327;28;20302;-63
2022/04/23 01:32:38;;;;;;;25.23;19.02;;;10.60;99.90;;;;;;4967613;28;20049;-63
2022/04/23 01:35:05;;;;;;;30.05;19.55;;;10.50;99.90;;;;;;4969347;28;20039;-63
2022/04/23 01:37:31;;;;;;;26.58;20.00;;;10.50;99.90;;;;;;4972610;28;20050;-63
2022/04/23 01:39:56;;;;;;;28.38;19.70;;;10.50;99.90;;;;;;4967850;28;20027;-63
2022/04/23 01:42:22;;;;;;;24.50;18.92;;;10.40;99.90;;;;;;4970672;28;20061;-63
2022/04/23 01:44:50;;;;;;;26.08;19.38;;;10.50;99.90;;;;;;4972415;28;20050;-63
2022/04/23 01:47:16;;;;;;;26.92;19.67;;;10.50;99.90;;;;;;4972997;28;20474;-63
2022/04/23 01:49:44;;;;;;;26.60;19.67;;;10.50;99.90;;;;;;4958870;28;20123;-63
2022/04/23 01:52:10;;;;;;;29.95;19.58;;;10.50;99.90;;;;;;4967336;28;20564;-63
2022/04/23 01:54:36;;;;;;;27.77;19.67;;;10.40;99.90;;;;;;4971971;28;20421;-63
2022/04/23 01:57:02;;;;;;;26.52;19.55;;;10.40;99.90;;;;;;4965828;28;20037;-63
2022/04/23 01:59:28;;;;;;;26.63;19.98;;;10.40;99.90;;;;;;4964170;28;20474;-63
2022/04/23 02:01:53;;;;;;;29.48;19.13;;;10.30;99.90;;;;;;4972216;28;20053;-63
2022/04/23 02:04:19;;;;;;;25.23;19.20;;;10.30;99.90;;;;;;4972564;28;20039;-63
2022/04/23 02:06:45;;;;;;;27.10;20.00;;;10.40;99.90;;;;;;4968252;28;20042;-63
2022/04/23 02:09:11;;;;;;;27.45;19.65;;;10.30;99.90;;;;;;4968204;28;20093;-63
2022/04/23 02:11:37;;;;;;;27.23;19.75;;;10.40;99.90;;;;;;4972487;28;20098;-63
2022/04/23 02:14:03;;;;;;;27.85;19.83;;;10.30;99.90;;;;;;4968511;28;20043;-63
2022/04/23 02:16:29;;;;;;;25.85;19.77;;;10.30;99.90;;;;;;4965481;28;20086;-63
2022/04/23 02:18:57;;;;;;;27.38;18.80;;;10.30;99.90;;;;;;4972291;28;20118;-63
2022/04/23 02:21:23;;;;;;;28.77;19.40;;;10.30;99.90;;;;;;4965792;28;20031;-63
2022/04/23 02:23:49;;;;;;;25.42;19.95;;;10.30;99.90;;;;;;4958720;28;20043;-63
2022/04/23 02:26:14;;;;;;;25.85;19.15;;;10.30;99.90;;;;;;4975508;28;20133;-63
2022/04/23 02:28:40;;;;;;;24.98;18.70;;;10.30;99.90;;;;;;4971797;28;20118;-63
2022/04/23 02:31:07;;;;;;;27.02;19.45;;;10.30;99.90;;;;;;4962988;28;20039;-63
2022/04/23 02:33:32;;;;;;;27.15;18.80;;;10.20;99.90;;;;;;4973946;28;20485;-63
2022/04/23 02:35:58;;;;;;;25.30;18.65;;;10.20;99.90;;;;;;4976070;28;20049;-63
2022/04/23 02:38:23;;;;;;;24.10;18.52;;;10.20;99.90;;;;;;4967686;28;20041;-63
2022/04/23 02:40:49;;;;;;;27.80;18.85;;;10.20;99.90;;;;;;4970294;28;20043;-63
2022/04/23 02:43:15;;;;;;;25.88;18.88;;;10.20;99.90;;;;;;4975756;28;20405;-63
2022/04/23 02:45:41;;;;;;;27.50;18.02;;;10.20;99.90;;;;;;4975938;28;20047;-63
2022/04/23 02:48:09;;;;;;;24.17;17.98;;;10.10;99.90;;;;;;4968500;28;20037;-63
2022/04/23 02:50:39;;;;;;;24.10;18.13;;;10.00;99.90;;;;;;4975245;28;20039;-63
2022/04/23 02:53:06;;;;;;;30.40;19.00;;;9.90;99.90;;;;;;4975754;28;20157;-63
2022/04/23 02:55:33;;;;;;;23.10;18.02;;;9.90;99.90;;;;;;4971579;28;20117;-63
2022/04/23 02:58:10;;;;;;;23.40;17.95;;;9.80;99.90;;;;;;4975120;28;20114;-63
2022/04/23 03:00:38;;;;;;;23.77;18.02;;;9.70;99.90;;;;;;4975414;28;20066;-63
2022/04/23 03:03:05;;;;;;;23.27;18.05;;;9.60;99.90;;;;;;4966684;28;20050;-63
2022/04/23 03:05:31;;;;;;;24.38;17.30;;;9.60;99.90;;;;;;4968230;28;20043;-63
2022/04/23 03:07:59;;;;;;;26.13;17.45;;;9.50;99.90;;;;;;4975013;28;20085;-63
2022/04/23 03:10:25;;;;;;;27.67;17.60;;;9.50;99.90;;;;;;4975454;28;20109;-63
2022/04/23 03:12:52;;;;;;;25.88;17.95;;;9.50;99.90;;;;;;4957069;28;20490;-63
2022/04/23 03:15:18;;;;;;;22.73;16.85;;;9.50;99.90;;;;;;4969296;28;20046;-63
2022/04/23 03:17:45;;;;;;;24.73;17.67;;;9.40;99.90;;;;;;4974865;28;20039;-63
2022/04/23 03:20:12;;;;;;;23.08;16.30;;;9.40;99.90;;;;;;4969621;28;20126;-63
2022/04/23 03:22:39;;;;;;;24.08;16.75;;;9.30;99.90;;;;;;4970105;28;20038;-63
2022/04/23 03:25:09;;;;;;;22.52;16.65;;;9.30;99.90;;;;;;4975026;28;20070;-63
2022/04/23 03:27:35;;;;;;;26.10;17.13;;;9.30;99.90;;;;;;4975383;28;20034;-62
2022/04/23 03:30:02;;;;;;;25.25;16.90;;;9.40;99.90;;;;;;4968549;28;20038;-63
2022/04/23 03:32:27;;;;;;;25.70;16.73;;;9.40;99.90;;;;;;4966521;28;20520;-63
2022/04/23 03:34:53;;;;;;;24.45;16.70;;;9.30;99.90;;;;;;4974601;28;20062;-63
2022/04/23 03:37:19;;;;;;;23.83;16.55;;;9.30;99.90;;;;;;4968603;28;20122;-63
2022/04/23 03:39:44;;;;;;;24.08;16.92;;;9.30;99.90;;;;;;4968341;28;20038;-63
2022/04/23 03:42:11;;;;;;;25.58;16.95;;;9.20;99.90;;;;;;4974610;28;20485;-63
2022/04/23 03:44:37;;;;;;;22.65;16.08;;;9.20;99.90;;;;;;4974912;28;20508;-63
2022/04/23 03:47:03;;;;;;;23.58;17.30;;;9.20;99.90;;;;;;4969991;28;20038;-63
2022/04/23 03:49:32;;;;;;;23.33;16.58;;;9.20;99.90;;;;;;4962353;28;20051;-63
2022/04/23 03:51:58;;;;;;;23.83;16.35;;;9.20;99.90;;;;;;4964452;28;20045;-63
2022/04/23 03:54:24;;;;;;;24.60;17.13;;;9.20;99.90;;;;;;4970773;28;20042;-63
2022/04/23 03:56:49;;;;;;;23.27;16.33;;;9.20;99.90;;;;;;4973911;28;20062;-63
2022/04/23 03:59:20;;;;;;;25.10;16.73;;;9.20;99.90;;;;;;4967654;28;20106;-63
2022/04/23 04:01:46;;;;;;;21.70;15.48;;;9.20;99.90;;;;;;4969734;28;20043;-63
2022/04/23 04:04:12;;;;;;;22.25;16.58;;;9.20;99.90;;;;;;4973383;28;20458;-63
2022/04/23 04:06:39;;;;;;;23.85;16.48;;;9.20;99.90;;;;;;4966030;28;20110;-63
2022/04/23 04:09:04;;;;;;;24.42;16.27;;;9.20;99.90;;;;;;4965572;28;20074;-63
2022/04/23 04:12:01;;;;;;;21.38;15.80;;;9.20;99.90;;;;;;4969686;28;20038;-63
2022/04/23 04:14:15;;;;;;;21.15;15.43;;;9.30;99.90;;;;;;4973286;28;20584;-63
2022/04/23 04:16:41;;;;;;;19.52;15.05;;;9.30;99.90;;;;;;4974445;28;20039;-63
2022/04/23 04:19:07;;;;;;;20.48;14.93;;;9.40;99.90;;;;;;4963467;28;20094;-63
2022/04/23 04:21:32;;;;;;;21.83;15.02;;;9.40;99.90;;;;;;4964637;28;20038;-63
2022/04/23 04:23:59;;;;;;;19.27;14.82;;;9.50;99.90;;;;;;4973679;28;20127;-63
2022/04/23 04:26:25;;;;;;;19.83;14.63;;;9.40;99.90;;;;;;4968346;28;20047;-63
2022/04/23 04:28:50;;;;;;;19.85;14.65;;;9.40;99.90;;;;;;4963188;28;20046;-63
2022/04/23 04:34:00;;;;;;;18.70;13.85;;;9.50;99.90;;;;;;4968882;28;20047;-63
2022/04/23 04:36:25;;;;;;;19.38;14.05;;;9.40;99.90;;;;;;4949125;28;20042;-63
2022/04/23 04:38:51;;;;;;;18.35;13.48;;;9.50;99.90;;;;;;4973436;28;20039;-63
2022/04/23 04:41:16;;;;;;;19.25;13.43;;;9.40;99.90;;;;;;4973666;28;20045;-63
2022/04/23 04:43:42;;;;;;;18.42;13.90;;;9.50;99.90;;;;;;4963512;28;20041;-63
2022/04/23 04:46:08;;;;;;;25.45;12.98;;;9.50;99.90;;;;;;4961255;28;20092;-63
2022/04/23 04:48:34;;;;;;;19.42;13.63;;;9.50;99.90;;;;;;4954962;28;20200;-63
2022/04/23 04:50:59;;;;;;;18.02;13.05;;;9.50;99.90;;;;;;4963558;28;20477;-63
2022/04/23 04:53:25;;;;;;;17.02;13.48;;;9.40;99.90;;;;;;4973295;28;20047;-63
2022/04/23 04:55:50;;;;;;;18.02;13.38;;;9.50;99.90;;;;;;4968751;28;20053;-63
2022/04/23 04:58:16;;;;;;;17.58;12.88;;;9.50;99.90;;;;;;4954930;28;20039;-63
2022/04/23 05:00:42;;;;;;;19.25;12.13;;;9.60;99.90;;;;;;4961746;28;20046;-63
2022/04/23 05:03:07;;;;;;;16.90;12.32;;;9.50;99.90;;;;;;4970559;28;20113;-63
2022/04/23 05:05:33;;;;;;;16.90;12.73;;;9.60;99.90;;;;;;4972632;28;20042;-63
2022/04/23 05:07:58;;;;;;;16.88;12.38;;;9.60;99.90;;;;;;4968871;28;20039;-63
2022/04/23 05:10:24;;;;;;;16.50;12.10;;;9.60;99.90;;;;;;4962530;28;20505;-63
2022/04/23 05:12:49;;;;;;;16.08;11.88;;;9.70;99.90;;;;;;4965770;28;20046;-63
2022/04/23 05:15:15;;;;;;;16.27;12.65;;;9.70;99.90;;;;;;4968223;28;21042;-63
2022/04/23 05:17:41;;;;;;;17.85;11.98;;;9.80;99.90;;;;;;4962097;28;20034;-63
2022/04/23 05:20:07;;;;;;;17.30;12.15;;;9.80;99.90;;;;;;4965025;28;20050;-63
2022/04/23 05:22:32;;;;;;;16.67;11.80;;;9.80;99.90;;;;;;4968429;28;20039;-63
2022/04/23 05:24:58;;;;;;;14.80;11.77;;;9.90;99.90;;;;;;4963347;28;20053;-63
2022/04/23 05:27:26;;;;;;;16.38;12.45;;;9.90;99.90;;;;;;4968323;28;20039;-63
2022/04/23 05:29:51;;;;;;;15.00;11.77;;;9.90;99.90;;;;;;4968946;28;20053;-63
2022/04/23 05:34:55;;;;;;;16.02;11.93;;;9.90;99.90;;;;;;4947336;28;20413;-62
2022/04/23 05:37:20;;;;;;;16.38;11.88;;;10.00;99.90;;;;;;4965308;28;20504;-62
2022/04/23 05:44:50;;;;;;;15.20;11.48;;;10.00;99.90;;;;;;4927557;29;20066;-62
2022/04/23 05:47:15;;;;;;;16.40;11.43;;;10.00;99.90;;;;;;4909889;29;20047;-61
2022/04/23 05:49:41;;;;;;;14.95;11.93;;;10.00;99.90;;;;;;4913651;29;20039;-62
2022/04/23 05:52:07;;;;;;;17.38;12.45;;;10.10;99.90;;;;;;4915572;29;20387;-62
2022/04/23 05:59:43;;;;;;;15.45;11.75;;;10.10;99.90;;;;;;5246950;23;20071;-62
2022/04/23 06:02:09;;;;;;;21.98;12.00;;;10.20;99.90;;;;;;4971071;28;20409;-62
2022/04/23 06:04:34;;;;;;;16.95;12.93;;;10.20;99.90;;;;;;4968206;28;20043;-62
2022/04/23 06:07:00;;;;;;;16.40;11.90;;;10.20;99.90;;;;;;4968717;28;20034;-62
2022/04/23 06:09:26;;;;;;;18.23;12.95;;;10.30;99.90;;;;;;4964843;28;20038;-62
2022/04/23 06:19:50;;;;;;;18.48;12.82;;;10.50;99.90;;;;;;5525126;23;20955;-61
2022/04/23 06:27:35;;;;;;;16.25;12.93;;;10.60;99.90;;;;;;5574687;23;20061;-61
2022/04/23 06:30:01;;;;;;;18.15;13.65;;;10.60;99.90;;;;;;4963356;28;20037;-61
2022/04/23 06:32:26;;;;;;;17.65;12.80;;;10.70;99.90;;;;;;4962038;28;20035;-61
2022/04/23 06:34:52;;;;;;;18.55;13.68;;;10.70;99.90;;;;;;4951895;28;20390;-65
2022/04/23 06:37:21;;;;;;;18.90;14.00;;;10.80;99.90;;;;;;4957916;28;20094;-62
2022/04/23 06:39:47;;;;;;;20.42;13.93;;;10.80;99.90;;;;;;4966910;28;21161;-62
2022/04/23 06:44:48;;;;;;;18.67;12.98;;;10.90;99.90;;;;;;5136266;23;98738;-61
2022/04/23 06:47:16;;;;;;;18.60;13.68;;;11.00;99.90;;;;;;4975418;28;20458;-62
2022/04/23 06:49:42;;;;;;;18.52;13.98;;;11.00;99.90;;;;;;4962834;28;20035;-62
2022/04/23 07:07:40;;;;;;;19.23;14.63;;;11.30;99.90;;;;;;5303038;23;20047;-62
2022/04/23 07:10:06;;;;;;;21.38;14.10;;;11.40;99.90;;;;;;4989121;28;20039;-62
2022/04/23 07:12:33;;;;;;;18.17;13.98;;;11.40;99.90;;;;;;4982353;28;20031;-62
2022/04/23 07:14:59;;;;;;;18.77;14.20;;;11.50;99.90;;;;;;4955980;28;20489;-62
2022/04/23 07:17:26;;;;;;;19.92;14.40;;;11.60;99.90;;;;;;4957061;28;20421;-62
2022/04/23 07:27:41;;;;;;;22.75;14.45;;;11.80;99.90;;;;;;5157512;23;20062;-61
2022/04/23 07:32:42;;;;;;;20.83;15.23;;;11.90;99.90;;;;;;6132905;23;21161;-61
2022/04/23 07:53:24;;;;;;;23.42;14.43;;;12.60;99.90;;;;;;5598913;23;20620;-60
2022/04/23 07:55:50;;;;;;;21.27;14.68;;;12.70;99.90;;;;;;4949171;28;20497;-61
2022/04/23 07:58:16;;;;;;;23.83;14.55;;;12.70;99.90;;;;;;4943813;28;20034;-61
2022/04/23 08:00:43;;;;;;;22.40;13.63;;;12.90;99.90;;;;;;4953772;28;20624;-61
2022/04/23 08:03:09;;;;;;;26.17;14.15;;;12.90;99.90;;;;;;4954156;28;20069;-60
2022/04/23 08:11:06;;;;;;;22.23;14.02;;;13.10;99.90;;;;;;5164086;23;20047;-61
2022/04/23 08:13:32;;;;;;;21.70;13.23;;;13.10;99.90;;;;;;4957786;28;20046;-60
2022/04/23 08:15:59;;;;;;;22.05;14.10;;;13.20;99.90;;;;;;4963421;28;20039;-61
2022/04/23 08:18:26;;;;;;;22.33;13.63;;;13.20;99.90;;;;;;4967283;28;20047;-61
2022/04/23 08:20:51;;;;;;;18.90;13.63;;;13.30;99.90;;;;;;4934959;28;20047;-60
2022/04/23 08:23:17;;;;;;;25.35;14.57;;;13.40;99.90;;;;;;4964717;28;20031;-60
2022/04/23 08:25:45;;;;;;;19.90;14.15;;;13.40;99.90;;;;;;4968704;28;20119;-60
2022/04/23 08:41:17;;;;;;;17.58;13.82;;;13.70;99.10;;;;;;5009747;23;20065;-60
2022/04/23 08:43:42;;;;;;;19.92;13.93;;;13.70;99.90;;;;;;4963221;28;20039;-61
2022/04/23 08:46:09;;;;;;;22.20;13.40;;;13.80;99.90;;;;;;4933844;28;20043;-61
2022/04/23 08:48:38;;;;;;;18.58;14.40;;;13.90;99.90;;;;;;4927923;29;20032;-61
2022/04/23 08:51:05;;;;;;;17.63;13.35;;;14.00;99.90;;;;;;4950268;28;20038;-61
2022/04/23 08:56:08;;;;;;;26.80;13.77;;;14.00;99.90;;;;;;5034979;23;20058;-60
2022/04/23 08:58:33;;;;;;;19.63;14.23;;;14.00;99.90;;;;;;4915360;29;20051;-61
2022/04/23 09:06:17;;;;;;;23.25;14.23;;;14.20;99.90;;;;;;5966243;23;20065;-61
2022/04/23 09:09:05;;;;;;;19.58;14.68;;;14.30;99.20;;;;;;4960976;28;20046;-61
2022/04/23 09:11:35;;;;;;;19.95;14.48;;;14.30;99.40;;;;;;5105581;23;20047;-60
2022/04/23 09:14:04;;;;;;;21.52;14.73;;;14.40;98.40;;;;;;4966704;28;20042;-61
2022/04/23 09:24:51;;;;;;;21.85;14.32;;;14.40;98.40;;;;;;5129374;23;20046;-61
2022/04/23 09:27:17;;;;;;;23.55;14.18;;;14.40;98.60;;;;;;4960671;28;20043;-61
2022/04/23 09:30:01;;;;;;;21.08;15.23;;;14.40;98.00;;;;;;4962164;28;20061;-61
2022/04/23 09:32:27;;;;;;;23.52;15.27;;;14.60;99.00;;;;;;4962872;28;20129;-61
2022/04/23 09:35:09;;;;;;;19.52;14.35;;;14.70;99.10;;;;;;4952627;28;20383;-61
2022/04/23 09:40:22;;;;;;;19.90;15.07;;;14.80;96.00;;;;;;4951569;28;20039;-61
2022/04/23 09:43:09;;;;;;;27.25;14.32;;;14.80;98.00;;;;;;4950656;28;20105;-61
2022/04/23 09:48:17;;;;;;;23.35;15.70;;;14.80;98.40;;;;;;6107680;23;20010;-61
2022/04/23 09:50:47;;;;;;;19.70;14.90;;;14.80;96.30;;;;;;4941837;28;20066;-61
2022/04/23 09:53:15;;;;;;;22.38;15.63;;;14.90;98.70;;;;;;4947303;28;20039;-61
2022/04/23 09:55:41;;;;;;;21.48;15.02;;;15.00;96.50;;;;;;4950521;29;20541;-61
2022/04/23 10:03:19;;;;;;;19.30;15.68;;;15.20;97.10;;;;;;5440968;23;20048;-61
2022/04/23 10:05:49;;;;;;;25.40;15.65;;;15.10;96.00;;;;;;4922715;29;20052;-61
2022/04/23 10:08:17;;;;;;;21.02;14.77;;;15.30;98.50;;;;;;4915375;29;20131;-61
2022/04/23 10:10:45;;;;;;;21.77;15.63;;;15.00;94.10;;;;;;4924753;29;20047;-61
2022/04/23 10:13:12;;;;;;;21.42;15.60;;;15.20;95.80;;;;;;4933227;29;20404;-61
2022/04/23 10:15:39;;;;;;;21.75;15.40;;;15.30;96.60;;;;;;4934198;29;20059;-61
2022/04/23 10:18:09;;;;;;;20.33;15.75;;;15.20;94.30;;;;;;4926802;29;20044;-61
2022/04/23 10:23:23;;;;;;;22.58;16.30;;;15.40;95.80;;;;;;5359541;23;20051;-62
2022/04/23 10:26:00;;;;;;;40.38;21.25;;;15.60;96.80;;;;;;4966400;28;20035;-62
2022/04/23 10:28:25;;;;;;;19.70;14.70;;;15.80;97.30;;;;;;4962717;28;20035;-61
2022/04/23 10:31:12;;;;;;;26.63;15.88;;;15.70;96.70;;;;;;4958200;28;20050;-61
2022/04/23 10:36:14;;;;;;;20.90;15.85;;;15.70;94.90;;;;;;5300754;23;20051;-61
2022/04/23 10:38:51;;;;;;;24.23;16.08;;;15.80;95.90;;;;;;4955190;28;20031;-61
2022/04/23 10:41:20;;;;;;;19.75;15.43;;;16.00;95.80;;;;;;4965287;28;20045;-61
2022/04/23 10:43:49;;;;;;;19.33;16.73;;;16.10;95.80;;;;;;4960789;28;20114;-61
2022/04/23 10:46:36;;;;;;;19.65;15.73;;;16.30;93.50;;;;;;4961427;28;20130;-61
2022/04/23 10:49:52;;;;;;;18.73;15.65;;;16.10;92.40;;;;;;4983109;28;20042;-61
2022/04/23 10:55:00;;;;;;;20.45;15.05;;;16.20;94.50;;;;;;5066413;23;20054;-61
2022/04/23 10:57:25;;;;;;;19.55;14.77;;;16.40;93.30;;;;;;4945101;29;20047;-61
2022/04/23 11:00:13;;;;;;;21.05;15.38;;;16.20;92.70;;;;;;4938172;29;20020;-61
2022/04/23 11:02:39;;;;;;;22.92;15.82;;;16.10;92.00;;;;;;4933940;29;20051;-61
2022/04/23 11:16:29;;;;;;;17.88;13.95;;;16.40;92.50;;;;;;5159959;23;20035;-60
2022/04/23 11:18:59;;;;;;;18.90;14.82;;;16.50;93.20;;;;;;4967542;28;20062;-61
2022/04/23 11:23:56;;;;;;;19.27;14.23;;;16.60;86.70;;;;;;4962994;28;20043;-61
2022/04/23 11:26:42;;;;;;;21.98;14.35;;;16.50;84.10;;;;;;4971059;28;20053;-61
2022/04/23 11:29:08;;;;;;;19.58;14.00;;;16.50;83.70;;;;;;4976898;28;20688;-64
2022/04/23 11:31:34;;;;;;;19.08;13.95;;;16.50;84.10;;;;;;4974656;28;20501;-61
2022/04/23 11:34:01;;;;;;;17.17;13.45;;;16.40;83.20;;;;;;4973270;28;20409;-61
2022/04/23 11:36:33;;;;;;;21.08;14.43;;;16.40;78.00;;;;;;4963402;28;20045;-61
2022/04/23 11:39:09;;;;;;;17.27;13.38;;;16.50;93.10;;;;;;4963576;28;20098;-61
2022/04/23 11:41:41;;;;;;;26.88;14.23;;;16.60;86.40;;;;;;4963511;28;20114;-61
2022/04/23 11:47:09;;;;;;;20.60;14.70;;;16.90;91.60;;;;;;4964411;28;20077;-61
2022/04/23 11:49:35;;;;;;;20.65;14.60;;;17.20;88.20;;;;;;4973509;28;20216;-61
2022/04/23 11:52:05;;;;;;;19.33;14.20;;;17.30;90.00;;;;;;4974561;28;20646;-61
2022/04/23 11:54:42;;;;;;;15.93;13.18;;;17.40;91.30;;;;;;4970685;28;20039;-61
2022/04/23 11:57:16;;;;;;;20.05;13.07;;;17.30;77.30;;;;;;4960401;28;20031;-61
2022/04/23 12:04:59;;;;;;;19.98;12.77;;;17.20;69.80;;;;;;5385103;23;20079;-60
2022/04/23 12:07:26;;;;;;;15.80;13.02;;;17.30;80.20;;;;;;4947295;28;20129;-61
2022/04/23 12:09:59;;;;;;;16.75;13.52;;;17.50;85.50;;;;;;4966089;28;20051;-60
2022/04/23 12:12:33;;;;;;;20.00;12.70;;;17.60;85.80;;;;;;4961296;28;20039;-61
2022/04/23 12:15:09;;;;;;;25.80;12.10;;;17.90;86.40;;;;;;4944884;28;20046;-60
2022/04/23 12:17:48;;;;;;;22.15;11.48;;;17.50;61.10;;;;;;4949467;28;20672;-61
2022/04/23 12:20:16;;;;;;;12.98;10.70;;;17.40;61.30;;;;;;4957992;28;20744;-61
2022/04/23 12:42:04;;;;;;;13.73;10.63;;;18.00;58.50;;;;;;4969702;28;20042;-61
2022/04/23 12:44:41;;;;;;;16.15;10.95;;;17.90;58.40;;;;;;4960588;28;20541;-61
2022/04/23 12:47:08;;;;;;;16.13;11.02;;;18.00;62.10;;;;;;4950147;28;20043;-61
2022/04/23 12:52:22;;;;;;;18.15;10.38;;;18.00;62.20;;;;;;5647871;23;20063;-61
2022/04/23 12:55:22;;;;;;;19.63;10.27;;;18.20;62.60;;;;;;4934193;28;20490;-60
2022/04/23 12:57:53;;;;;;;11.43;9.57;;;18.30;55.10;;;;;;4940501;28;20459;-61
2022/04/23 13:00:25;;;;;;;12.27;9.35;;;18.20;58.50;;;;;;4940340;28;20054;-60
2022/04/23 13:02:58;;;;;;;16.15;10.23;;;18.20;56.40;;;;;;4934881;28;20624;-61
2022/04/23 13:05:24;;;;;;;13.00;10.38;;;18.40;56.70;;;;;;4923657;29;20047;-61
2022/04/23 13:10:35;;;;;;;12.20;10.55;;;18.20;54.10;;;;;;4944621;28;20040;-60
2022/04/23 13:15:39;;;;;;;10.52;9.00;;;18.20;55.50;;;;;;5288719;23;20047;-61
2022/04/23 13:18:05;;;;;;;13.23;9.38;;;18.20;54.30;;;;;;4972138;28;20054;-61
2022/04/23 13:20:31;;;;;;;11.60;9.65;;;18.20;53.90;;;;;;4955675;28;20034;-61
2022/04/23 13:22:59;;;;;;;14.30;9.18;;;18.50;56.60;;;;;;4960129;28;20102;-61
2022/04/23 13:25:25;;;;;;;14.18;9.65;;;18.40;52.90;;;;;;4953633;28;20122;-61
2022/04/23 13:33:13;;;;;;;16.23;8.57;;;19.00;55.10;;;;;;5043119;23;20094;-61
2022/04/23 13:35:38;;;;;;;14.40;9.55;;;19.10;53.40;;;;;;4951704;28;20055;-61
2022/04/23 13:38:04;;;;;;;18.25;9.23;;;19.10;51.70;;;;;;4953880;28;20035;-61
2022/04/23 13:40:29;;;;;;;13.25;9.65;;;19.00;52.00;;;;;;4950226;28;20031;-61
2022/04/23 13:42:55;;;;;;;12.00;9.10;;;19.00;52.80;;;;;;4954481;28;20151;-61
2022/04/23 13:45:21;;;;;;;11.52;9.23;;;19.20;53.60;;;;;;4927820;29;20035;-61
2022/04/23 13:47:50;;;;;;;13.43;9.30;;;19.20;52.10;;;;;;4954876;28;20046;-61
2022/04/23 13:50:16;;;;;;;9.75;8.63;;;19.60;55.90;;;;;;4966487;28;20078;-61
2022/04/23 13:52:42;;;;;;;10.75;8.40;;;19.40;50.90;;;;;;4950980;28;20070;-61
2022/04/23 13:55:10;;;;;;;13.57;9.15;;;19.10;49.80;;;;;;4936988;28;20047;-61
2022/04/23 13:57:35;;;;;;;10.35;9.10;;;19.30;51.70;;;;;;4952677;28;20439;-61
2022/04/23 14:00:01;;;;;;;12.20;8.98;;;19.40;52.10;;;;;;4972948;28;20489;-61
2022/04/23 14:10:23;;;;;;;12.52;8.57;;;19.40;49.90;;;;;;4921620;29;20036;-62
2022/04/23 14:12:48;;;;;;;13.02;9.02;;;19.40;50.50;;;;;;4930317;29;20126;-61
2022/04/23 14:15:14;;;;;;;13.75;8.93;;;19.40;49.10;;;;;;4914909;29;20043;-61
2022/04/23 14:17:40;;;;;;;12.38;8.73;;;19.60;53.30;;;;;;4946570;23;20565;-62
2022/04/23 14:20:06;;;;;;;21.77;9.07;;;19.70;52.90;;;;;;4922069;29;20364;-63
2022/04/23 14:22:32;;;;;;;10.23;8.38;;;19.90;53.60;;;;;;4915280;29;20056;-62
2022/04/23 14:25:01;;;;;;;10.65;8.00;;;19.90;51.90;;;;;;4924556;29;20541;-62
2022/04/23 14:27:28;;;;;;;11.52;8.10;;;19.90;50.40;;;;;;4923539;29;20039;-60
2022/04/23 14:29:54;;;;;;;10.90;8.77;;;19.80;48.50;;;;;;4919977;29;20415;-62
2022/04/23 14:32:19;;;;;;;20.33;8.93;;;19.80;51.20;;;;;;4927971;29;20044;-61
2022/04/23 14:34:47;;;;;;;10.57;9.45;;;19.60;51.20;;;;;;4933337;29;20044;-61
2022/04/23 14:37:13;;;;;;;15.43;9.05;;;19.90;53.10;;;;;;4918341;29;20047;-61
2022/04/23 14:39:39;;;;;;;12.73;9.75;;;20.00;51.90;;;;;;4927714;29;20043;-61
2022/04/23 14:42:05;;;;;;;11.85;9.05;;;20.00;52.80;;;;;;4934101;29;20054;-63
2022/04/23 14:44:30;;;;;;;10.15;9.15;;;20.20;52.50;;;;;;4919035;29;20051;-62
2022/04/23 14:46:56;;;;;;;10.45;8.63;;;20.30;53.40;;;;;;4927331;29;20086;-62
2022/04/23 14:49:22;;;;;;;12.82;8.10;;;20.40;50.20;;;;;;4935604;29;20043;-59
2022/04/23 14:54:32;;;;;;;13.00;8.40;;;20.10;49.10;;;;;;4919956;29;20040;-58
2022/04/23 14:56:57;;;;;;;11.13;8.00;;;20.50;51.10;;;;;;4930696;29;20036;-59
2022/04/23 14:59:24;;;;;;;13.73;7.75;;;20.70;49.20;;;;;;4933866;29;20376;-58
2022/04/23 15:01:49;;;;;;;10.23;7.70;;;20.60;48.90;;;;;;4922500;29;20059;-59
2022/04/23 15:04:15;;;;;;;9.63;7.80;;;21.00;49.30;;;;;;4932420;29;20755;-58
2022/04/23 15:06:41;;;;;;;24.85;8.05;;;21.10;48.10;;;;;;4934180;29;20044;-60
2022/04/23 15:09:08;;;;;;;13.10;6.90;;;21.00;46.20;;;;;;4923783;29;20048;-60
2022/04/23 15:11:34;;;;;;;12.68;6.90;;;20.60;44.70;;;;;;4918444;29;20044;-60
2022/04/23 15:14:00;;;;;;;12.20;7.32;;;20.80;46.80;;;;;;4930163;29;20054;-60
2022/04/23 15:16:25;;;;;;;8.45;6.28;;;20.80;43.90;;;;;;4920343;29;20044;-60
2022/04/23 15:18:51;;;;;;;9.27;6.13;;;21.30;46.20;;;;;;4923308;29;20653;-60
2022/04/23 15:21:18;;;;;;;8.90;6.60;;;21.80;45.50;;;;;;4935937;29;20410;-60
2022/04/23 15:23:44;;;;;;;7.47;6.28;;;22.20;45.60;;;;;;4931973;29;20118;-59
2022/04/23 15:26:10;;;;;;;10.27;6.50;;;22.30;45.40;;;;;;4920496;29;20682;-62
2022/04/23 15:28:36;;;;;;;7.95;6.47;;;22.60;45.30;;;;;;4914046;29;20439;-61
2022/04/23 15:31:04;;;;;;;13.50;6.10;;;22.60;44.00;;;;;;4932877;29;20098;-60
2022/04/23 15:33:30;;;;;;;7.47;5.85;;;22.70;44.30;;;;;;4922941;29;20493;-62
2022/04/23 15:35:56;;;;;;;7.45;5.97;;;23.00;44.20;;;;;;4928580;29;20504;-62
2022/04/23 15:38:23;;;;;;;7.22;5.90;;;23.10;44.60;;;;;;4935272;29;20122;-62
2022/04/23 15:40:48;;;;;;;9.88;6.20;;;23.20;44.10;;;;;;4918373;29;20044;-62
2022/04/23 15:43:14;;;;;;;13.32;6.07;;;23.30;44.10;;;;;;4929933;29;20035;-62
2022/04/23 15:45:40;;;;;;;7.05;6.35;;;23.50;45.20;;;;;;4936163;29;20051;-62
2022/04/23 15:48:08;;;;;;;9.82;6.10;;;22.90;40.00;;;;;;4931051;29;20035;-62